Time;durP1;ratioP1;P1;durP2;ratioP2;P2;SDS_P1;SDS_P2;PMS_P1;PMS_P2;Temp;Humidity;BMP_temperature;BMP_pressure;BME280_temperature;BME280_humidity;BME280_pressure;Samples;Min_cycle;Max_cycle;Signal;HPM_P1;HPM_P2
2021/09/12 00:00:28;;;;;;;56.78;44.63;;;16.20;99.90;;;;;;5110732;28;20706;-80
2021/09/12 00:02:54;;;;;;;50.53;42.13;;;16.10;99.90;;;;;;5110601;28;20373;-81
2021/09/12 00:05:20;;;;;;;51.35;40.80;;;16.10;99.90;;;;;;5110735;28;20391;-82
2021/09/12 00:07:46;;;;;;;44.90;38.15;;;16.10;99.90;;;;;;5110761;28;20363;-81
2021/09/12 00:10:12;;;;;;;47.13;39.17;;;16.00;99.90;;;;;;5110931;28;20721;-82
2021/09/12 00:12:38;;;;;;;44.13;37.25;;;16.00;99.90;;;;;;5110389;28;20390;-84
2021/09/12 00:15:06;;;;;;;45.70;37.13;;;15.90;99.90;;;;;;5110270;28;20379;-83
2021/09/12 00:17:32;;;;;;;46.70;36.55;;;15.90;99.90;;;;;;5110668;28;20383;-85
2021/09/12 00:19:57;;;;;;;42.90;33.97;;;15.80;99.90;;;;;;5110421;28;20369;-79
2021/09/12 00:22:23;;;;;;;43.65;33.35;;;15.80;99.90;;;;;;5110649;28;20371;-82
2021/09/12 00:24:48;;;;;;;39.77;32.27;;;15.80;99.90;;;;;;5110151;28;20903;-80
2021/09/12 00:27:14;;;;;;;47.05;34.30;;;15.70;99.90;;;;;;5092100;28;20508;-81
2021/09/12 00:29:40;;;;;;;40.00;32.57;;;15.70;99.90;;;;;;5092299;28;20474;-83
2021/09/12 00:32:06;;;;;;;50.70;37.77;;;15.70;99.90;;;;;;5110536;28;20378;-81
2021/09/12 00:34:31;;;;;;;50.28;36.88;;;15.60;99.90;;;;;;5110089;28;21050;-79
2021/09/12 00:36:57;;;;;;;46.30;34.03;;;15.60;99.90;;;;;;5110568;28;20378;-84
2021/09/12 00:39:23;;;;;;;38.97;31.73;;;15.60;99.90;;;;;;5110343;28;20366;-80
2021/09/12 00:41:48;;;;;;;36.47;30.55;;;15.60;99.90;;;;;;5110484;28;20367;-82
2021/09/12 00:44:14;;;;;;;33.97;29.77;;;15.60;99.90;;;;;;5110311;28;20837;-84
2021/09/12 00:46:44;;;;;;;35.25;29.40;;;15.60;99.90;;;;;;5109954;28;20398;-81
2021/09/12 00:49:11;;;;;;;35.08;29.88;;;15.50;99.90;;;;;;5110277;28;20419;-80
2021/09/12 00:51:37;;;;;;;32.33;28.02;;;15.50;99.90;;;;;;5110410;28;20557;-80
2021/09/12 00:54:05;;;;;;;33.08;27.20;;;15.50;99.90;;;;;;5093769;28;20840;-81
2021/09/12 00:56:32;;;;;;;31.67;27.40;;;15.50;99.90;;;;;;5113190;28;20392;-81
2021/09/12 00:59:01;;;;;;;35.00;28.58;;;15.40;99.90;;;;;;5094521;28;20367;-83
2021/09/12 01:01:27;;;;;;;35.65;29.40;;;15.40;99.90;;;;;;5114090;28;20402;-84
2021/09/12 01:03:53;;;;;;;37.20;29.83;;;15.40;99.90;;;;;;5114135;28;20895;-82
2021/09/12 01:06:19;;;;;;;29.67;25.87;;;15.30;99.90;;;;;;5114137;28;20395;-83
2021/09/12 01:08:45;;;;;;;33.90;26.65;;;15.30;99.90;;;;;;5114429;28;20876;-81
2021/09/12 01:11:10;;;;;;;33.03;27.33;;;15.30;99.90;;;;;;5114328;28;20379;-80
2021/09/12 01:13:41;;;;;;;28.75;24.65;;;15.20;99.90;;;;;;5095471;28;20378;-81
2021/09/12 01:16:19;;;;;;;32.85;26.98;;;15.30;99.90;;;;;;5096058;28;20387;-79
2021/09/12 01:18:45;;;;;;;33.17;27.20;;;15.20;99.90;;;;;;5095810;28;20371;-81
2021/09/12 01:21:14;;;;;;;33.85;27.77;;;15.20;99.90;;;;;;5114144;28;20902;-83
2021/09/12 01:23:41;;;;;;;31.63;26.02;;;15.20;99.90;;;;;;5113674;28;20556;-81
2021/09/12 01:26:07;;;;;;;31.02;25.88;;;15.20;99.90;;;;;;5114156;28;20884;-79
2021/09/12 01:28:33;;;;;;;33.75;26.48;;;15.20;99.90;;;;;;5112454;28;20813;-81
2021/09/12 01:31:00;;;;;;;27.88;23.75;;;15.10;99.90;;;;;;5113781;28;20374;-81
2021/09/12 01:33:26;;;;;;;29.00;24.02;;;15.10;99.90;;;;;;5095414;28;20401;-83
2021/09/12 01:35:52;;;;;;;31.40;25.27;;;15.10;99.90;;;;;;5113881;28;20377;-80
2021/09/12 01:38:18;;;;;;;30.70;24.05;;;15.10;99.90;;;;;;5113632;28;20868;-83
2021/09/12 01:40:43;;;;;;;32.88;26.42;;;15.00;99.90;;;;;;5113865;28;20377;-82
2021/09/12 01:43:09;;;;;;;35.37;26.93;;;15.00;99.90;;;;;;5113407;28;20371;-83
2021/09/12 01:45:35;;;;;;;27.10;23.90;;;15.00;99.90;;;;;;5113483;28;20945;-83
2021/09/12 01:48:00;;;;;;;29.27;23.57;;;14.90;99.90;;;;;;5113336;28;20397;-83
2021/09/12 01:50:27;;;;;;;25.23;22.63;;;14.90;99.90;;;;;;5113791;28;20455;-83
2021/09/12 01:52:53;;;;;;;26.10;22.80;;;14.90;99.90;;;;;;5113144;28;20845;-81
2021/09/12 01:55:19;;;;;;;24.98;21.73;;;14.90;99.90;;;;;;5113480;28;20390;-80
2021/09/12 01:57:45;;;;;;;25.00;21.98;;;14.80;99.90;;;;;;5095231;28;20379;-83
2021/09/12 02:00:11;;;;;;;33.28;26.20;;;14.80;99.90;;;;;;5113343;28;20373;-81
2021/09/12 02:02:36;;;;;;;35.40;25.93;;;14.80;99.90;;;;;;5113062;28;20373;-83
2021/09/12 02:05:03;;;;;;;25.73;22.33;;;14.80;99.90;;;;;;5112550;28;20477;-81
2021/09/12 02:07:29;;;;;;;27.73;23.33;;;14.80;99.90;;;;;;5094946;28;20891;-83
2021/09/12 02:09:55;;;;;;;26.47;21.27;;;14.80;99.90;;;;;;5113286;28;20474;-80
2021/09/12 02:12:20;;;;;;;30.42;24.40;;;14.70;99.90;;;;;;5113163;28;20367;-82
2021/09/12 02:14:46;;;;;;;27.95;23.63;;;14.80;99.90;;;;;;5112685;28;20371;-85
2021/09/12 02:17:11;;;;;;;32.27;26.10;;;14.70;99.90;;;;;;5113385;28;20436;-80
2021/09/12 02:19:37;;;;;;;34.15;26.00;;;14.70;99.90;;;;;;5113088;28;20363;-79
2021/09/12 02:22:03;;;;;;;29.27;24.27;;;14.70;99.90;;;;;;5113096;28;20713;-83
2021/09/12 02:24:28;;;;;;;27.65;22.23;;;14.70;99.90;;;;;;5112847;28;20424;-84
2021/09/12 02:26:54;;;;;;;28.58;23.05;;;14.70;99.90;;;;;;5113098;28;20422;-81
2021/09/12 02:29:20;;;;;;;31.23;24.93;;;14.70;99.90;;;;;;5112794;28;20473;-82
2021/09/12 02:31:45;;;;;;;32.72;26.13;;;14.60;99.90;;;;;;5112861;28;20373;-84
2021/09/12 02:34:11;;;;;;;36.17;28.37;;;14.60;99.90;;;;;;5111058;28;20411;-84
2021/09/12 02:36:36;;;;;;;33.00;25.85;;;14.60;99.90;;;;;;5112603;28;20377;-84
2021/09/12 02:39:03;;;;;;;38.50;28.83;;;14.50;99.90;;;;;;5112740;28;21055;-85
2021/09/12 02:41:28;;;;;;;33.05;27.67;;;14.60;99.90;;;;;;5112483;28;20379;-82
2021/09/12 02:43:54;;;;;;;39.77;31.43;;;14.60;99.90;;;;;;5110922;28;20946;-85
2021/09/12 02:46:20;;;;;;;34.72;29.45;;;14.60;99.90;;;;;;5112444;28;20430;-83
2021/09/12 02:48:45;;;;;;;37.13;28.08;;;14.50;99.90;;;;;;5111184;28;20737;-82
2021/09/12 02:51:11;;;;;;;34.57;27.30;;;14.60;99.90;;;;;;5112465;28;20449;-84
2021/09/12 02:53:37;;;;;;;33.60;26.63;;;14.50;99.90;;;;;;5112351;28;20374;-84
2021/09/12 02:56:03;;;;;;;31.80;26.65;;;14.50;99.90;;;;;;5112412;28;20406;-84
2021/09/12 02:58:28;;;;;;;41.38;33.00;;;14.50;99.90;;;;;;5112720;28;20865;-85
2021/09/12 03:00:54;;;;;;;48.10;36.47;;;14.50;99.90;;;;;;5112133;28;20371;-84
2021/09/12 03:03:19;;;;;;;48.63;34.63;;;14.50;99.90;;;;;;5111720;28;20369;-85
2021/09/12 03:05:45;;;;;;;39.57;30.30;;;14.40;99.90;;;;;;5093844;28;20394;-84
2021/09/12 03:08:11;;;;;;;37.47;29.90;;;14.40;99.90;;;;;;5112191;28;20749;-85
2021/09/12 03:10:36;;;;;;;37.53;29.47;;;14.40;99.90;;;;;;5111886;28;20419;-84
2021/09/12 03:13:02;;;;;;;34.22;28.52;;;14.40;99.90;;;;;;5111586;28;20401;-85
2021/09/12 03:15:28;;;;;;;44.58;33.75;;;14.40;99.90;;;;;;5111469;28;20405;-82
2021/09/12 03:17:54;;;;;;;41.30;34.25;;;14.40;99.90;;;;;;5111294;28;20463;-85
2021/09/12 03:20:19;;;;;;;42.03;34.17;;;14.40;99.90;;;;;;5111687;28;20366;-84
2021/09/12 03:22:45;;;;;;;40.40;30.88;;;14.30;99.90;;;;;;5110506;28;20909;-81
2021/09/12 03:25:10;;;;;;;49.23;37.67;;;14.40;99.90;;;;;;5111325;28;20489;-82
2021/09/12 03:27:36;;;;;;;45.67;35.28;;;14.40;99.90;;;;;;5111587;28;20375;-84
2021/09/12 03:30:03;;;;;;;48.90;37.13;;;14.30;99.90;;;;;;5111428;28;20402;-83
2021/09/12 03:32:28;;;;;;;51.55;38.78;;;14.30;99.90;;;;;;5111444;28;20454;-81
2021/09/12 03:34:54;;;;;;;57.42;41.55;;;14.20;99.90;;;;;;5111371;28;20840;-83
2021/09/12 03:37:20;;;;;;;58.70;44.60;;;14.20;99.90;;;;;;5111451;28;20371;-85
2021/09/12 03:39:45;;;;;;;57.28;42.45;;;14.30;99.90;;;;;;5111526;28;20872;-85
2021/09/12 03:42:11;;;;;;;67.60;47.47;;;14.30;99.90;;;;;;5111857;28;20507;-82
2021/09/12 03:44:36;;;;;;;68.53;48.20;;;14.40;99.90;;;;;;5110023;28;20432;-82
2021/09/12 03:47:02;;;;;;;68.37;48.03;;;14.40;99.90;;;;;;5109795;28;20503;-82
2021/09/12 03:49:28;;;;;;;64.80;47.00;;;14.50;99.90;;;;;;5109877;28;20463;-81
2021/09/12 03:51:53;;;;;;;69.20;48.88;;;14.50;99.90;;;;;;5111182;28;20366;-81
2021/09/12 03:54:19;;;;;;;67.87;48.30;;;14.60;99.90;;;;;;5110949;28;20374;-83
2021/09/12 03:56:44;;;;;;;71.95;49.10;;;14.60;99.90;;;;;;5109763;28;20379;-83
2021/09/12 03:59:10;;;;;;;61.53;45.87;;;14.60;99.90;;;;;;5109911;28;20394;-83
2021/09/12 04:01:35;;;;;;;70.80;49.42;;;14.60;99.90;;;;;;5111110;28;20377;-84
2021/09/12 04:04:01;;;;;;;69.47;49.17;;;14.70;99.90;;;;;;5111034;28;20855;-82
2021/09/12 04:06:27;;;;;;;80.30;53.83;;;14.70;99.90;;;;;;5110796;28;20434;-84
2021/09/12 04:08:54;;;;;;;74.83;51.60;;;14.70;99.90;;;;;;5111100;28;20884;-84
2021/09/12 04:11:20;;;;;;;71.07;49.70;;;14.70;99.90;;;;;;5110843;28;20478;-81
2021/09/12 04:13:46;;;;;;;84.25;51.97;;;14.80;99.90;;;;;;5110532;28;20450;-82
2021/09/12 04:16:11;;;;;;;77.40;52.10;;;14.80;99.90;;;;;;5110905;28;20367;-82
2021/09/12 04:18:37;;;;;;;73.97;47.80;;;14.80;99.90;;;;;;5110845;28;20379;-84
2021/09/12 04:21:03;;;;;;;67.00;47.03;;;14.80;99.90;;;;;;5110831;28;20367;-83
2021/09/12 04:23:29;;;;;;;67.13;46.30;;;14.70;99.90;;;;;;5110086;28;20371;-83
2021/09/12 04:25:55;;;;;;;66.83;47.00;;;14.70;99.90;;;;;;5110512;28;20718;-84
2021/09/12 04:28:20;;;;;;;64.70;44.63;;;14.70;99.90;;;;;;5110465;28;20406;-84
2021/09/12 04:30:46;;;;;;;62.20;45.80;;;14.70;99.90;;;;;;5110668;28;20371;-80
2021/09/12 04:33:11;;;;;;;64.60;46.43;;;14.70;99.90;;;;;;5110330;28;20378;-81
2021/09/12 04:35:37;;;;;;;76.63;50.45;;;14.70;99.90;;;;;;5110586;28;20936;-81
2021/09/12 04:38:03;;;;;;;70.23;46.17;;;14.70;99.90;;;;;;5110426;28;20371;-82
2021/09/12 04:40:29;;;;;;;69.15;47.55;;;14.70;99.90;;;;;;5092073;28;20881;-85
2021/09/12 04:42:55;;;;;;;64.15;45.33;;;14.70;99.90;;;;;;5109957;28;20374;-84
2021/09/12 04:45:21;;;;;;;71.57;47.53;;;14.60;99.90;;;;;;5110407;28;20367;-84
2021/09/12 04:47:46;;;;;;;68.90;45.30;;;14.60;99.90;;;;;;5110016;28;20924;-84
2021/09/12 04:50:12;;;;;;;74.43;46.63;;;14.60;99.90;;;;;;5092194;28;20748;-85
2021/09/12 04:52:37;;;;;;;57.42;42.10;;;14.60;99.90;;;;;;5110444;28;20474;-82
2021/09/12 04:55:03;;;;;;;57.27;40.50;;;14.60;99.90;;;;;;5110088;28;20449;-83
2021/09/12 04:57:29;;;;;;;57.65;42.35;;;14.50;99.90;;;;;;5110414;28;20779;-81
2021/09/12 04:59:54;;;;;;;71.70;48.40;;;14.50;99.90;;;;;;5110294;28;20375;-82
2021/09/12 05:02:20;;;;;;;74.10;49.40;;;14.60;99.90;;;;;;5110249;28;20419;-81
2021/09/12 05:04:45;;;;;;;62.60;45.28;;;14.60;99.90;;;;;;5109992;28;20435;-82
2021/09/12 05:07:11;;;;;;;62.83;44.17;;;14.70;99.90;;;;;;5109174;28;20398;-83
2021/09/12 05:09:37;;;;;;;58.15;41.58;;;14.70;99.90;;;;;;5108861;28;20884;-83
2021/09/12 05:12:02;;;;;;;51.43;38.87;;;14.70;99.90;;;;;;5110114;28;20376;-81
2021/09/12 05:14:28;;;;;;;52.85;39.20;;;14.80;99.90;;;;;;5109719;28;20373;-82
2021/09/12 05:16:54;;;;;;;56.45;42.28;;;14.70;99.90;;;;;;5110266;28;20385;-81
2021/09/12 05:19:19;;;;;;;51.57;38.17;;;14.80;99.90;;;;;;5110246;28;20371;-81
2021/09/12 05:21:45;;;;;;;51.88;38.35;;;14.90;99.90;;;;;;5110290;28;20378;-84
2021/09/12 05:24:10;;;;;;;55.40;40.63;;;15.00;99.90;;;;;;5109614;28;20383;-81
2021/09/12 05:26:36;;;;;;;56.83;41.10;;;15.00;99.90;;;;;;5109924;28;20495;-84
2021/09/12 05:29:01;;;;;;;60.57;42.20;;;15.10;99.90;;;;;;5110115;28;20375;-82
2021/09/12 05:31:27;;;;;;;49.80;37.92;;;15.10;99.90;;;;;;5109939;28;20722;-80
2021/09/12 05:33:53;;;;;;;47.03;37.07;;;15.20;99.90;;;;;;5108408;28;20386;-81
2021/09/12 05:36:18;;;;;;;45.40;36.80;;;15.30;99.90;;;;;;5091820;28;20444;-81
2021/09/12 05:38:44;;;;;;;44.97;35.73;;;15.40;99.90;;;;;;5108737;28;20924;-82
2021/09/12 05:41:09;;;;;;;42.83;35.43;;;15.50;99.90;;;;;;5113387;28;20405;-84
2021/09/12 05:43:35;;;;;;;43.53;34.70;;;15.60;99.90;;;;;;5113316;28;20371;-84
2021/09/12 05:46:01;;;;;;;45.53;34.58;;;15.60;99.90;;;;;;5113531;28;20860;-82
2021/09/12 05:48:26;;;;;;;47.63;37.97;;;15.70;99.90;;;;;;5113351;28;20869;-85
2021/09/12 05:50:52;;;;;;;43.70;36.00;;;15.80;99.90;;;;;;5113523;28;20475;-84
2021/09/12 05:53:20;;;;;;;51.80;39.53;;;16.00;99.90;;;;;;5113320;28;20397;-83
2021/09/12 05:55:47;;;;;;;53.88;39.90;;;16.00;99.90;;;;;;5113439;28;20374;-83
2021/09/12 05:58:13;;;;;;;47.77;37.77;;;16.20;99.90;;;;;;5113425;28;20440;-82
2021/09/12 06:00:38;;;;;;;52.63;40.28;;;16.30;99.90;;;;;;5113419;28;20427;-84
2021/09/12 06:03:04;;;;;;;48.83;39.13;;;16.40;99.90;;;;;;5113254;28;20833;-81
2021/09/12 06:05:30;;;;;;;45.97;37.35;;;16.60;99.90;;;;;;5113201;28;20447;-85
2021/09/12 06:07:56;;;;;;;44.30;37.10;;;16.80;99.90;;;;;;5113111;28;20457;-81
2021/09/12 06:10:21;;;;;;;43.00;37.20;;;16.80;99.90;;;;;;5113037;28;20741;-82
2021/09/12 06:12:47;;;;;;;41.23;35.03;;;16.90;99.90;;;;;;5112806;28;20408;-84
2021/09/12 06:15:13;;;;;;;39.67;33.95;;;17.00;99.90;;;;;;5111880;28;20387;-82
2021/09/12 06:17:39;;;;;;;42.80;35.85;;;17.10;99.90;;;;;;5113089;28;20778;-83
2021/09/12 06:20:06;;;;;;;42.50;34.50;;;17.20;99.90;;;;;;5094701;28;20370;-79
2021/09/12 06:22:31;;;;;;;35.72;31.83;;;17.20;99.90;;;;;;5094754;28;20375;-82
2021/09/12 06:24:57;;;;;;;36.65;32.65;;;17.30;99.90;;;;;;5111261;28;20725;-83
2021/09/12 06:27:22;;;;;;;36.90;32.87;;;17.30;99.90;;;;;;5112801;28;20391;-84
2021/09/12 06:29:48;;;;;;;36.40;32.60;;;17.50;99.90;;;;;;5112859;28;20378;-81
2021/09/12 06:32:14;;;;;;;37.43;33.43;;;17.60;99.90;;;;;;5112615;28;20436;-81
2021/09/12 06:34:39;;;;;;;33.92;30.33;;;17.70;99.90;;;;;;5112349;28;20382;-83
2021/09/12 06:37:06;;;;;;;33.30;29.53;;;17.80;99.90;;;;;;5111415;28;20379;-83
2021/09/12 06:39:32;;;;;;;32.22;28.88;;;18.00;99.90;;;;;;5112530;28;20375;-81
2021/09/12 06:41:57;;;;;;;29.30;26.40;;;18.20;99.90;;;;;;5112677;28;20728;-83
2021/09/12 06:44:23;;;;;;;28.92;26.00;;;18.30;99.90;;;;;;5112182;28;20367;-82
2021/09/12 06:46:49;;;;;;;28.48;25.55;;;18.50;99.90;;;;;;5112363;28;20414;-82
2021/09/12 06:49:14;;;;;;;28.67;25.87;;;18.60;99.90;;;;;;5112479;28;20375;-83
2021/09/12 06:51:40;;;;;;;26.98;24.10;;;18.70;99.90;;;;;;5109811;28;20420;-80
2021/09/12 06:54:06;;;;;;;26.77;23.97;;;18.80;99.90;;;;;;5112282;28;20367;-83
2021/09/12 06:56:31;;;;;;;25.93;23.33;;;19.00;99.90;;;;;;5112588;28;20422;-82
2021/09/12 06:58:57;;;;;;;27.20;24.30;;;19.10;99.90;;;;;;5112440;28;20495;-82
2021/09/12 07:01:22;;;;;;;25.13;22.77;;;19.00;99.90;;;;;;5112421;28;20373;-80
2021/09/12 07:03:48;;;;;;;24.88;22.58;;;19.10;99.90;;;;;;5112403;28;20873;-81
2021/09/12 07:06:13;;;;;;;25.00;21.77;;;19.30;99.90;;;;;;5112095;28;20745;-83
2021/09/12 07:08:39;;;;;;;25.33;22.92;;;19.40;99.90;;;;;;5112425;28;20401;-80
2021/09/12 07:11:05;;;;;;;26.70;23.90;;;19.30;99.90;;;;;;5112650;28;20374;-82
2021/09/12 07:13:31;;;;;;;27.17;24.48;;;19.20;99.90;;;;;;5111960;28;20710;-78
2021/09/12 07:15:56;;;;;;;26.20;23.50;;;19.20;99.90;;;;;;5112871;28;20947;-78
2021/09/12 07:18:22;;;;;;;25.40;22.85;;;19.10;99.90;;;;;;5112235;28;20516;-82
2021/09/12 07:20:47;;;;;;;26.07;23.33;;;19.10;99.90;;;;;;5112390;28;20872;-81
2021/09/12 07:23:13;;;;;;;25.92;23.23;;;19.20;99.90;;;;;;5111659;28;20854;-80
2021/09/12 07:25:39;;;;;;;26.60;23.87;;;19.00;99.90;;;;;;5111859;28;20408;-78
2021/09/12 07:28:04;;;;;;;25.70;23.15;;;18.90;99.90;;;;;;5111884;28;20381;-81
2021/09/12 07:30:30;;;;;;;25.63;23.03;;;18.80;99.90;;;;;;5111309;28;20414;-79
2021/09/12 07:32:55;;;;;;;26.43;23.90;;;18.90;99.90;;;;;;5112264;28;20366;-80
2021/09/12 07:35:21;;;;;;;27.40;24.60;;;18.80;99.90;;;;;;5112389;28;20367;-79
2021/09/12 07:37:46;;;;;;;27.03;24.30;;;18.90;99.90;;;;;;5110490;28;20857;-80
2021/09/12 07:40:12;;;;;;;25.45;22.95;;;19.00;99.90;;;;;;5111564;28;20370;-81
2021/09/12 07:42:40;;;;;;;24.57;22.00;;;19.20;99.90;;;;;;5110503;28;20370;-78
2021/09/12 07:45:06;;;;;;;24.97;22.43;;;19.40;99.90;;;;;;5110714;28;20375;-82
2021/09/12 07:47:33;;;;;;;23.55;21.20;;;19.50;99.90;;;;;;5110639;28;20456;-86
2021/09/12 07:49:59;;;;;;;24.52;22.10;;;19.60;99.90;;;;;;5110750;28;20922;-79
2021/09/12 07:52:25;;;;;;;23.07;20.77;;;19.70;99.90;;;;;;5106242;28;20430;-81
2021/09/12 07:54:50;;;;;;;24.35;21.85;;;19.80;99.90;;;;;;5110899;28;20467;-80
2021/09/12 07:57:16;;;;;;;24.40;21.97;;;19.90;99.90;;;;;;5110541;28;20385;-80
2021/09/12 07:59:41;;;;;;;24.45;22.05;;;20.00;99.90;;;;;;5110243;28;20713;-85
2021/09/12 08:02:07;;;;;;;24.97;22.47;;;20.10;99.90;;;;;;5109659;28;20401;-82
2021/09/12 08:04:32;;;;;;;26.17;23.58;;;20.20;99.90;;;;;;5109988;28;20403;-84
2021/09/12 08:06:58;;;;;;;21.83;19.83;;;20.30;99.90;;;;;;5110273;28;20978;-81
2021/09/12 08:09:23;;;;;;;22.27;19.97;;;20.60;99.90;;;;;;5110207;28;20470;-82
2021/09/12 08:11:49;;;;;;;23.73;21.42;;;20.80;99.90;;;;;;5110035;28;20477;-85
2021/09/12 08:14:16;;;;;;;21.90;19.90;;;21.00;99.90;;;;;;5109906;28;20428;-85
2021/09/12 08:16:42;;;;;;;22.98;20.65;;;21.20;99.90;;;;;;5091789;28;20880;-82
2021/09/12 08:19:08;;;;;;;23.07;20.27;;;21.40;99.90;;;;;;5110306;28;20385;-81
2021/09/12 08:21:34;;;;;;;22.15;19.77;;;21.60;99.90;;;;;;5092247;28;20371;-79
2021/09/12 08:24:00;;;;;;;23.92;21.63;;;21.60;99.90;;;;;;5091788;28;21615;-83
2021/09/12 08:26:25;;;;;;;21.67;19.50;;;21.60;99.90;;;;;;5089415;28;20912;-84
2021/09/12 08:28:51;;;;;;;23.53;21.23;;;21.60;99.90;;;;;;5110393;28;20386;-80
2021/09/12 08:31:18;;;;;;;23.60;21.10;;;21.40;99.90;;;;;;5111071;28;20484;-86
2021/09/12 08:33:56;;;;;;;24.65;22.15;;;21.20;99.90;;;;;;5091346;28;20746;-82
2021/09/12 08:36:22;;;;;;;23.98;21.52;;;21.10;99.90;;;;;;5092124;28;20489;-82
2021/09/12 08:38:51;;;;;;;24.95;22.35;;;20.90;99.90;;;;;;5091053;28;20414;-85
2021/09/12 08:41:24;;;;;;;24.92;22.48;;;20.90;99.90;;;;;;5090107;28;20383;-83
2021/09/12 08:43:57;;;;;;;25.77;23.08;;;20.90;99.90;;;;;;5088364;28;20383;-83
2021/09/12 08:46:33;;;;;;;23.35;21.05;;;20.90;99.90;;;;;;5089607;28;20413;-81
2021/09/12 08:49:01;;;;;;;23.40;21.10;;;21.10;99.90;;;;;;5110409;28;21012;-78
2021/09/12 08:51:28;;;;;;;22.10;20.00;;;21.20;99.90;;;;;;5112303;28;20508;-81
2021/09/12 08:53:53;;;;;;;22.40;20.15;;;21.40;99.90;;;;;;5094268;28;20469;-80
2021/09/12 08:56:19;;;;;;;21.97;19.73;;;21.60;99.90;;;;;;5113345;28;20459;-80
2021/09/12 08:58:45;;;;;;;22.38;20.25;;;21.50;99.90;;;;;;5110052;28;20374;-82
2021/09/12 09:01:11;;;;;;;22.93;20.67;;;21.60;99.90;;;;;;5110861;28;20371;-82
2021/09/12 09:03:39;;;;;;;23.25;21.10;;;21.60;99.90;;;;;;5093239;28;20888;-80
2021/09/12 09:06:18;;;;;;;21.42;19.40;;;21.60;99.90;;;;;;5109718;28;20402;-81
2021/09/12 09:08:56;;;;;;;21.35;19.23;;;21.90;99.90;;;;;;5108882;28;20507;-81
2021/09/12 09:11:34;;;;;;;21.30;19.25;;;22.10;99.90;;;;;;5109459;28;20371;-81
2021/09/12 09:14:14;;;;;;;19.60;17.65;;;22.30;99.90;;;;;;5107198;28;20386;-81
2021/09/12 09:16:41;;;;;;;20.65;18.60;;;22.50;99.90;;;;;;5093729;28;20383;-80
2021/09/12 09:19:08;;;;;;;21.23;18.13;;;22.60;99.90;;;;;;5113109;28;20872;-78
2021/09/12 09:21:42;;;;;;;22.13;19.77;;;22.60;99.90;;;;;;5113477;28;20398;-80
2021/09/12 09:24:22;;;;;;;21.15;18.98;;;22.60;99.90;;;;;;5109994;28;20386;-78
2021/09/12 09:26:51;;;;;;;21.90;19.48;;;22.50;99.90;;;;;;5092092;28;20449;-79
2021/09/12 09:29:26;;;;;;;20.90;18.67;;;22.60;99.90;;;;;;5110608;28;20375;-79
2021/09/12 09:32:13;;;;;;;21.88;19.77;;;22.60;99.90;;;;;;5110907;28;20473;-81
2021/09/12 09:34:43;;;;;;;21.48;18.80;;;22.70;99.90;;;;;;5111362;28;20453;-81
2021/09/12 09:37:20;;;;;;;21.23;18.83;;;22.80;99.90;;;;;;5093359;28;20378;-80
2021/09/12 09:39:54;;;;;;;22.20;19.63;;;22.90;99.90;;;;;;5111915;28;20470;-81
2021/09/12 09:42:37;;;;;;;21.73;19.63;;;22.90;99.90;;;;;;5105403;28;20383;-80
2021/09/12 09:45:09;;;;;;;21.03;18.90;;;22.90;99.90;;;;;;5093479;28;21007;-80
2021/09/12 09:47:35;;;;;;;21.27;19.08;;;22.90;99.90;;;;;;5111861;28;20864;-82
2021/09/12 09:50:19;;;;;;;19.77;17.77;;;22.90;99.90;;;;;;5112630;28;20374;-79
2021/09/12 09:52:46;;;;;;;19.45;17.42;;;22.90;99.90;;;;;;5092798;28;20387;-80
2021/09/12 09:55:15;;;;;;;20.10;18.02;;;23.00;99.90;;;;;;5093854;28;20375;-79
2021/09/12 09:57:46;;;;;;;18.92;17.02;;;23.00;99.90;;;;;;5093959;28;20937;-81
2021/09/12 10:00:12;;;;;;;18.40;16.38;;;23.10;99.90;;;;;;5108681;28;20872;-80
2021/09/12 10:02:39;;;;;;;19.30;17.40;;;23.10;99.90;;;;;;5112036;28;20536;-81
2021/09/12 10:05:09;;;;;;;18.90;16.90;;;23.00;99.90;;;;;;5091039;28;20389;-82
2021/09/12 10:07:37;;;;;;;19.80;17.55;;;23.00;99.90;;;;;;5109441;28;20920;-80
2021/09/12 10:10:09;;;;;;;17.77;16.08;;;23.00;99.90;;;;;;5093257;28;20880;-80
2021/09/12 10:12:47;;;;;;;15.30;13.77;;;23.10;99.90;;;;;;5108958;28;20374;-80
2021/09/12 10:15:21;;;;;;;15.17;13.67;;;23.20;99.90;;;;;;5111418;28;20378;-79
2021/09/12 10:17:48;;;;;;;15.77;14.30;;;23.30;99.90;;;;;;5111466;28;20382;-81
2021/09/12 10:20:16;;;;;;;16.37;14.67;;;23.50;99.90;;;;;;5092688;28;20383;-81
2021/09/12 10:23:00;;;;;;;15.25;13.75;;;23.50;99.90;;;;;;5107807;27;20733;-81
2021/09/12 10:25:28;;;;;;;15.07;13.60;;;23.50;99.90;;;;;;5106300;27;20839;-82
2021/09/12 10:28:04;;;;;;;14.80;13.25;;;23.60;99.90;;;;;;5113062;27;20374;-81
2021/09/12 10:30:40;;;;;;;14.73;13.32;;;23.60;99.90;;;;;;5113545;27;20463;-81
2021/09/12 10:33:13;;;;;;;14.60;13.20;;;23.60;99.90;;;;;;5091366;28;20394;-80
2021/09/12 10:35:48;;;;;;;15.63;14.13;;;23.40;99.90;;;;;;5092682;28;20391;-81
2021/09/12 10:38:37;;;;;;;13.48;12.10;;;23.20;99.90;;;;;;5110887;28;20393;-82
2021/09/12 10:41:02;;;;;;;13.25;11.63;;;23.40;99.90;;;;;;5110525;27;20370;-83
2021/09/12 10:43:29;;;;;;;14.07;12.67;;;23.60;99.90;;;;;;5103068;28;20388;-81
2021/09/12 10:46:01;;;;;;;11.93;10.55;;;23.50;99.90;;;;;;5109742;28;20403;-81
2021/09/12 10:48:28;;;;;;;11.90;10.70;;;23.80;99.90;;;;;;5111236;28;20401;-80
2021/09/12 10:50:53;;;;;;;11.60;10.50;;;24.20;99.90;;;;;;5089497;28;20383;-83
2021/09/12 10:53:42;;;;;;;11.33;9.10;;;24.50;99.90;;;;;;5111156;28;21004;-82
2021/09/12 10:56:09;;;;;;;10.35;9.40;;;24.90;99.90;;;;;;5089912;28;20382;-82
2021/09/12 10:58:35;;;;;;;10.20;9.13;;;25.00;99.90;;;;;;5108996;27;20907;-81
2021/09/12 11:01:02;;;;;;;14.00;8.88;;;25.00;99.90;;;;;;5111734;27;20382;-82
2021/09/12 11:03:29;;;;;;;9.07;8.18;;;25.10;99.90;;;;;;5110682;28;20370;-80
2021/09/12 11:05:56;;;;;;;8.40;7.60;;;25.30;99.90;;;;;;5091380;28;20403;-81
2021/09/12 11:08:43;;;;;;;8.10;7.30;;;25.30;99.90;;;;;;5106475;28;20391;-80
2021/09/12 11:11:09;;;;;;;7.53;6.83;;;25.10;99.90;;;;;;5086484;28;20539;-80
2021/09/12 11:13:36;;;;;;;7.60;6.80;;;25.00;99.90;;;;;;5105539;28;20891;-83
2021/09/12 11:16:08;;;;;;;8.50;6.40;;;24.90;99.90;;;;;;5107921;27;20822;-82
2021/09/12 11:18:51;;;;;;;6.83;6.13;;;24.80;99.90;;;;;;5104780;27;20434;-82
2021/09/12 11:21:32;;;;;;;8.45;7.35;;;24.90;99.90;;;;;;5104364;28;20470;-83
2021/09/12 11:24:08;;;;;;;8.13;7.32;;;24.90;99.90;;;;;;5109507;27;20791;-81
2021/09/12 11:26:50;;;;;;;7.13;6.43;;;24.80;99.90;;;;;;5108177;27;20497;-83
2021/09/12 11:29:18;;;;;;;7.05;6.22;;;24.60;99.90;;;;;;5109774;28;20382;-81
2021/09/12 11:31:46;;;;;;;7.30;6.45;;;24.40;99.90;;;;;;5088272;28;20981;-83
2021/09/12 11:34:12;;;;;;;8.15;6.70;;;24.60;99.90;;;;;;5092382;28;20382;-81
2021/09/12 11:36:46;;;;;;;8.18;6.88;;;24.90;99.90;;;;;;5110058;28;21170;-82
2021/09/12 11:39:13;;;;;;;6.57;5.97;;;25.00;99.90;;;;;;5103547;28;20426;-82
2021/09/12 11:41:41;;;;;;;6.53;6.03;;;25.10;99.90;;;;;;5106207;28;20459;-81
2021/09/12 11:44:08;;;;;;;5.90;5.40;;;25.20;99.90;;;;;;5092457;28;20380;-82
2021/09/12 11:46:33;;;;;;;6.63;6.03;;;25.30;99.90;;;;;;5091727;28;20420;-81
2021/09/12 11:49:05;;;;;;;5.78;5.28;;;25.20;99.90;;;;;;5091216;28;20826;-82
2021/09/12 11:51:33;;;;;;;6.22;5.70;;;25.20;99.90;;;;;;5091293;28;20785;-84
2021/09/12 11:54:09;;;;;;;5.40;4.90;;;25.20;99.90;;;;;;5073868;28;20390;-81
2021/09/12 11:56:35;;;;;;;6.05;5.45;;;25.30;99.90;;;;;;5091693;28;20402;-83
2021/09/12 11:59:02;;;;;;;6.72;6.10;;;25.20;99.90;;;;;;5091795;28;20450;-84
2021/09/12 12:01:28;;;;;;;7.45;6.75;;;24.90;99.90;;;;;;5090982;28;20854;-83
2021/09/12 12:03:54;;;;;;;6.82;6.18;;;24.90;99.90;;;;;;5072791;28;20384;-84
2021/09/12 12:06:21;;;;;;;6.40;5.80;;;24.70;99.90;;;;;;5092590;28;20789;-81
2021/09/12 12:09:13;;;;;;;7.20;6.53;;;24.90;99.90;;;;;;5091839;28;20389;-81
2021/09/12 12:11:41;;;;;;;7.25;6.32;;;24.80;99.90;;;;;;5091076;28;20412;-84
2021/09/12 12:14:21;;;;;;;6.15;5.07;;;24.80;99.90;;;;;;5091350;28;20780;-83
2021/09/12 12:16:47;;;;;;;5.80;5.30;;;24.60;99.90;;;;;;5073335;28;20388;-83
2021/09/12 12:19:14;;;;;;;6.55;5.72;;;24.60;99.90;;;;;;5092080;28;20437;-83
2021/09/12 12:21:42;;;;;;;7.68;6.18;;;24.40;99.90;;;;;;5092941;28;20379;-83
2021/09/12 12:24:13;;;;;;;7.23;6.17;;;24.30;99.90;;;;;;5090795;28;20384;-82
2021/09/12 12:26:46;;;;;;;6.82;5.93;;;24.50;99.90;;;;;;5092528;28;20845;-82
2021/09/12 12:29:12;;;;;;;6.47;5.50;;;24.40;99.90;;;;;;5092423;28;20467;-82